Time;durP1;ratioP1;P1;durP2;ratioP2;P2;SDS_P1;SDS_P2;PMS_P1;PMS_P2;Temp;Humidity;BMP_temperature;BMP_pressure;BME280_temperature;BME280_humidity;BME280_pressure;Samples;Min_cycle;Max_cycle;Signal;HPM_P1;HPM_P2
2021/08/19 00:00:11;;;;;;;;;;;;;;;15.39;78.35;96992.94;30001;982;1880;-66
2021/08/19 00:00:41;;;;;;;;;;;;;;;15.40;78.22;97000.03;30001;982;1871;-64
2021/08/19 00:01:12;;;;;;;;;;;;;;;15.41;78.71;96998.09;30001;982;1858;-66
2021/08/19 00:01:43;;;;;;;;;;;;;;;15.41;78.43;96996.16;30001;982;1884;-64
2021/08/19 00:02:15;;;;;;;;;;;;;;;15.41;78.46;96990.69;30001;983;1879;-68
2021/08/19 00:02:45;;;;;;;;;;;;;;;15.41;78.48;96995.34;30001;983;1883;-64
2021/08/19 00:03:17;;;;;;;;;;;;;;;15.40;78.71;96989.09;30001;983;1879;-66
2021/08/19 00:03:47;;;;;;;;;;;;;;;15.41;78.72;96996.16;30001;983;1884;-62
2021/08/19 00:04:18;;;;;;;;;;;;;;;15.42;78.78;96992.31;30001;983;1879;-65
2021/08/19 00:04:51;;;;;;;;;;;;;;;15.45;78.64;96990.06;30001;983;1884;-56
2021/08/19 00:05:22;;;;;;;;;;;;;;;15.45;78.32;96988.13;30001;983;1879;-64
2021/08/19 00:05:53;;;;;;;;;;;;;;;15.46;78.42;96986.19;30001;983;1871;-64
2021/08/19 00:06:24;;;;;;;;;;;;;;;15.46;78.47;96991.66;30001;983;1871;-64
2021/08/19 00:06:54;;;;;;;;;;;;;;;15.45;78.43;96984.59;30001;983;1884;-63
2021/08/19 00:07:25;;;;;;;;;;;;;;;15.43;78.47;96982.97;30001;982;1880;-64
2021/08/19 00:07:56;;;;;;;;;;;;;;;15.46;78.68;96991.66;30001;982;1884;-64
2021/08/19 00:08:27;;;;;;;;;;;;;;;15.45;78.90;96985.38;30001;982;1880;-62
2021/08/19 00:08:58;;;;;;;;;;;;;;;15.46;78.94;96983.47;30001;982;1884;-65
2021/08/19 00:09:28;;;;;;;;;;;;;;;15.45;78.83;96981.84;30001;982;1880;-64
2021/08/19 00:09:59;;;;;;;;;;;;;;;15.44;78.91;96981.03;30001;983;1883;-63
2021/08/19 00:10:31;;;;;;;;;;;;;;;15.42;79.31;96978.62;30001;983;1866;-63
2021/08/19 00:11:03;;;;;;;;;;;;;;;15.42;79.27;96989.56;30001;983;1875;-64
2021/08/19 00:11:34;;;;;;;;;;;;;;;15.41;79.24;96979.75;30001;983;1879;-64
2021/08/19 00:12:08;;;;;;;;;;;;;;;15.41;79.24;96985.22;30001;983;1884;-64
2021/08/19 00:12:39;;;;;;;;;;;;;;;15.40;79.33;96989.09;30001;983;1879;-63
2021/08/19 00:13:10;;;;;;;;;;;;;;;15.41;79.22;96985.22;30001;983;1884;-63
2021/08/19 00:13:41;;;;;;;;;;;;;;;15.42;78.88;96984.09;30001;983;1880;-63
2021/08/19 00:14:12;;;;;;;;;;;;;;;15.43;78.80;96982.16;30001;983;1871;-64
2021/08/19 00:14:43;;;;;;;;;;;;;;;15.43;78.33;96980.25;30001;982;1871;-64
2021/08/19 00:15:13;;;;;;;;;;;;;;;15.45;78.72;96979.12;30001;982;1884;-63
2021/08/19 00:15:44;;;;;;;;;;;;;;;15.43;78.38;96982.16;30001;982;1867;-64
2021/08/19 00:16:15;;;;;;;;;;;;;;;15.43;78.47;96980.25;30001;982;1876;-64
2021/08/19 00:16:46;;;;;;;;;;;;;;;15.43;78.85;96987.62;30001;982;1880;-64
2021/08/19 00:17:17;;;;;;;;;;;;;;;15.41;78.50;96982.50;30001;983;1883;-57
2021/08/19 00:17:48;;;;;;;;;;;;;;;15.41;79.18;96979.75;30001;983;1879;-65
2021/08/19 00:18:18;;;;;;;;;;;;;;;15.40;79.11;96986.34;30001;983;1799;-64
2021/08/19 00:18:49;;;;;;;;;;;;;;;15.39;79.01;96981.19;30001;983;1879;-65
2021/08/19 00:19:20;;;;;;;;;;;;;;;15.38;79.21;96974.94;30001;983;1884;-66
2021/08/19 00:19:51;;;;;;;;;;;;;;;15.38;79.03;96980.41;30001;983;1879;-65
2021/08/19 00:20:22;;;;;;;;;;;;;;;15.37;79.00;96973.31;30001;983;1884;-65
2021/08/19 00:20:53;;;;;;;;;;;;;;;15.38;79.06;96969.47;30001;983;1866;-64
2021/08/19 00:21:24;;;;;;;;;;;;;;;15.38;79.04;96979.59;30001;982;1875;-63
2021/08/19 00:21:55;;;;;;;;;;;;;;;15.36;78.82;96968.97;30001;982;1880;-56
2021/08/19 00:22:26;;;;;;;;;;;;;;;15.36;79.51;96971.72;30001;982;1884;-64
2021/08/19 00:22:57;;;;;;;;;;;;;;;15.35;78.92;96963.81;30001;982;1792;-64
2021/08/19 00:23:29;;;;;;;;;;;;;;;15.37;79.04;96973.31;30001;982;1884;-65
2021/08/19 00:23:59;;;;;;;;;;;;;;;15.37;78.70;96972.50;30001;982;1880;-63
2021/08/19 00:24:30;;;;;;;;;;;;;;;15.36;78.78;96966.25;30001;982;1871;-55
2021/08/19 00:25:02;;;;;;;;;;;;;;;15.39;78.19;96965.59;30001;983;1870;-64
2021/08/19 00:25:36;;;;;;;;;;;;;;;15.40;77.95;96967.22;30001;983;1884;-65
2021/08/19 00:26:06;;;;;;;;;;;;;;;15.40;77.96;96966.41;30001;983;1879;-63
2021/08/19 00:26:37;;;;;;;;;;;;;;;15.39;78.02;96973.81;30001;983;1884;-64
2021/08/19 00:27:08;;;;;;;;;;;;;;;15.39;78.03;96973.81;30001;983;1879;-63
2021/08/19 00:27:39;;;;;;;;;;;;;;;15.40;78.48;96969.94;30001;983;1884;-69
2021/08/19 00:28:11;;;;;;;;;;;;;;;15.40;78.06;96972.69;30001;983;1880;-65
2021/08/19 00:28:42;;;;;;;;;;;;;;;15.39;78.02;96971.06;30001;983;1884;-64
2021/08/19 00:29:13;;;;;;;;;;;;;;;15.38;78.37;96980.41;30001;963;1886;-65
2021/08/19 00:29:44;;;;;;;;;;;;;;;15.36;78.45;96979.91;30001;982;1875;-64
2021/08/19 00:30:15;;;;;;;;;;;;;;;15.35;78.94;96974.75;30001;982;1880;-63
2021/08/19 00:30:46;;;;;;;;;;;;;;;15.34;78.64;96982.16;30001;985;1884;-64
2021/08/19 00:31:17;;;;;;;;;;;;;;;15.33;78.66;96980.56;30001;982;1880;-65
2021/08/19 00:31:49;;;;;;;;;;;;;;;15.32;78.93;96981.69;30001;982;1884;-65
2021/08/19 00:32:20;;;;;;;;;;;;;;;15.32;78.63;96978.13;30001;983;1879;-64
2021/08/19 00:32:51;;;;;;;;;;;;;;;15.31;78.70;96974.59;30001;983;1884;-63
2021/08/19 00:33:22;;;;;;;;;;;;;;;15.30;78.76;96967.53;30001;983;1879;-64
2021/08/19 00:33:53;;;;;;;;;;;;;;;15.30;79.63;96970.25;30001;983;1884;-64
2021/08/19 00:34:24;;;;;;;;;;;;;;;15.30;79.22;96978.47;30001;983;1866;-66
2021/08/19 00:34:55;;;;;;;;;;;;;;;15.29;79.29;96976.84;30001;983;1875;-65
2021/08/19 00:35:26;;;;;;;;;;;;;;;15.29;78.85;96982.31;30001;983;1880;-63
2021/08/19 00:35:57;;;;;;;;;;;;;;;15.28;78.99;96977.97;30001;983;1884;-63
2021/08/19 00:36:27;;;;;;;;;;;;;;;15.29;78.78;96982.31;30001;982;1880;-65
2021/08/19 00:36:58;;;;;;;;;;;;;;;15.29;78.89;96982.31;30001;982;1871;-64
2021/08/19 00:37:31;;;;;;;;;;;;;;;15.29;79.70;96979.59;30001;982;1858;-63
2021/08/19 00:38:03;;;;;;;;;;;;;;;15.28;79.37;96986.19;30001;982;1884;-63
2021/08/19 00:38:33;;;;;;;;;;;;;;;15.27;78.88;96973.63;30001;982;1880;-65
2021/08/19 00:39:05;;;;;;;;;;;;;;;15.27;79.14;96981.81;30001;982;1884;-56
2021/08/19 00:39:37;;;;;;;;;;;;;;;15.26;79.51;96982.94;30001;982;1880;-64
2021/08/19 00:40:09;;;;;;;;;;;;;;;15.24;79.64;96974.31;30001;983;1884;-64
2021/08/19 00:40:41;;;;;;;;;;;;;;;15.23;79.45;96978.16;30001;983;1879;-64
2021/08/19 00:41:12;;;;;;;;;;;;;;;15.23;79.54;96978.16;30001;983;1884;-64
2021/08/19 00:41:43;;;;;;;;;;;;;;;15.23;79.54;96974.63;30001;983;1866;-65
2021/08/19 00:42:17;;;;;;;;;;;;;;;15.22;79.77;96976.53;30001;983;1875;-65
2021/08/19 00:42:48;;;;;;;;;;;;;;;15.22;80.03;96979.28;30001;983;1866;-63
2021/08/19 00:43:19;;;;;;;;;;;;;;;15.22;80.14;96975.75;30001;983;1875;-63
2021/08/19 00:43:51;;;;;;;;;;;;;;;15.21;79.96;96968.66;30001;983;1866;-64
2021/08/19 00:44:22;;;;;;;;;;;;;;;15.21;79.90;96977.66;30001;982;1862;-65
2021/08/19 00:44:53;;;;;;;;;;;;;;;15.20;79.91;96973.31;30001;982;1880;-65
2021/08/19 00:45:25;;;;;;;;;;;;;;;15.20;79.95;96973.31;30001;982;1884;-64
2021/08/19 00:45:58;;;;;;;;;;;;;;;15.20;79.79;96981.53;30001;982;1880;-64
2021/08/19 00:46:30;;;;;;;;;;;;;;;15.20;80.05;96972.53;30001;982;1871;-64
2021/08/19 00:47:06;;;;;;;;;;;;;;;15.20;80.07;96975.25;30001;982;1871;-64
2021/08/19 00:47:38;;;;;;;;;;;;;;;15.19;80.00;96976.38;30001;983;1884;-63
2021/08/19 00:48:09;;;;;;;;;;;;;;;15.19;80.09;96973.66;30001;983;1879;-65
2021/08/19 00:48:40;;;;;;;;;;;;;;;15.19;80.26;96970.91;30001;983;1884;-65
2021/08/19 00:49:15;;;;;;;;;;;;;;;15.18;80.48;96974.78;30001;983;1879;-63
2021/08/19 00:49:46;;;;;;;;;;;;;;;15.17;80.71;96973.97;30001;983;1871;-63
2021/08/19 00:50:18;;;;;;;;;;;;;;;15.17;80.32;96973.97;30001;983;1871;-62
2021/08/19 00:50:49;;;;;;;;;;;;;;;15.18;80.41;96970.09;30001;983;1884;-64
2021/08/19 00:51:20;;;;;;;;;;;;;;;15.17;80.08;96968.50;30001;983;1880;-63
2021/08/19 00:51:55;;;;;;;;;;;;;;;15.16;80.08;96972.34;30001;982;1871;-62
2021/08/19 00:52:27;;;;;;;;;;;;;;;15.17;80.03;96965.78;30001;982;1871;-64
2021/08/19 00:52:58;;;;;;;;;;;;;;;15.18;80.03;96972.84;30001;973;1893;-65
2021/08/19 00:53:30;;;;;;;;;;;;;;;15.18;79.68;96970.09;30001;982;1880;-63
2021/08/19 00:54:03;;;;;;;;;;;;;;;15.19;79.89;96968.97;30001;982;1884;-63
2021/08/19 00:54:35;;;;;;;;;;;;;;;15.18;79.62;96970.09;30001;983;1879;-64
2021/08/19 00:55:08;;;;;;;;;;;;;;;15.18;79.72;96961.91;30001;983;1884;-63
2021/08/19 00:55:39;;;;;;;;;;;;;;;15.20;79.57;96959.66;30001;983;1866;-65
2021/08/19 00:56:10;;;;;;;;;;;;;;;15.22;79.78;96970.28;30001;983;1871;-63
2021/08/19 00:56:42;;;;;;;;;;;;;;;15.21;79.95;96966.75;30001;983;1857;-64
2021/08/19 00:57:13;;;;;;;;;;;;;;;15.20;80.25;96962.41;30001;983;1884;-64
2021/08/19 00:57:44;;;;;;;;;;;;;;;15.19;80.49;96960.78;30001;970;1893;-64
2021/08/19 00:58:15;;;;;;;;;;;;;;;15.19;80.13;96966.25;30001;983;1884;-64
2021/08/19 00:58:46;;;;;;;;;;;;;;;15.18;80.16;96964.66;30001;983;1866;-64
2021/08/19 00:59:23;;;;;;;;;;;;;;;15.19;79.90;96966.25;30001;982;1875;-63
2021/08/19 00:59:54;;;;;;;;;;;;;;;15.22;79.48;96960.16;30001;982;1880;-63
2021/08/19 01:00:25;;;;;;;;;;;;;;;15.24;79.16;96962.56;30001;986;1871;-65
2021/08/19 01:00:56;;;;;;;;;;;;;;;15.23;79.20;96967.22;30001;982;1871;-65
2021/08/19 01:01:27;;;;;;;;;;;;;;;15.25;79.06;96962.22;30001;982;1884;-65
2021/08/19 01:01:58;;;;;;;;;;;;;;;15.26;78.91;96965.75;30001;983;1879;-65
2021/08/19 01:02:29;;;;;;;;;;;;;;;15.26;78.91;96963.00;30001;983;1884;-63
2021/08/19 01:03:01;;;;;;;;;;;;;;;15.24;78.85;96968.84;30001;983;1879;-65
2021/08/19 01:03:32;;;;;;;;;;;;;;;15.24;78.97;96957.91;30001;983;1884;-65
2021/08/19 01:04:09;;;;;;;;;;;;;;;15.23;79.03;96967.22;30001;983;1879;-63
2021/08/19 01:04:41;;;;;;;;;;;;;;;15.23;79.18;96964.50;30001;983;1884;-64
2021/08/19 01:05:16;;;;;;;;;;;;;;;15.23;79.23;96959.03;30001;983;1866;-58
2021/08/19 01:05:46;;;;;;;;;;;;;;;15.22;79.32;96959.34;30001;983;1875;-64
2021/08/19 01:06:17;;;;;;;;;;;;;;;15.21;79.18;96963.19;30001;983;1880;-63
2021/08/19 01:06:49;;;;;;;;;;;;;;;15.22;79.07;96960.16;30001;982;1871;-64
2021/08/19 01:07:20;;;;;;;;;;;;;;;15.23;79.07;96967.22;30001;982;1871;-64
2021/08/19 01:07:51;;;;;;;;;;;;;;;15.22;79.30;96965.63;30001;982;1884;-63
2021/08/19 01:08:22;;;;;;;;;;;;;;;15.22;79.03;96960.16;30001;982;1880;-65
2021/08/19 01:08:53;;;;;;;;;;;;;;;15.23;79.25;96969.16;30001;982;1884;-65
2021/08/19 01:09:24;;;;;;;;;;;;;;;15.26;78.78;96966.56;30001;983;1879;-65
2021/08/19 01:09:55;;;;;;;;;;;;;;;15.28;78.72;96972.50;30001;974;1901;-65
2021/08/19 01:10:27;;;;;;;;;;;;;;;15.29;78.53;96965.09;30001;983;1879;-63
2021/08/19 01:10:58;;;;;;;;;;;;;;;15.32;78.50;96970.75;30001;983;1871;-68
2021/08/19 01:11:29;;;;;;;;;;;;;;;15.35;78.21;96969.28;30001;983;1871;-63
2021/08/19 01:12:01;;;;;;;;;;;;;;;15.35;78.01;96964.62;30001;983;1871;-63
2021/08/19 01:12:31;;;;;;;;;;;;;;;15.35;77.92;96964.62;30001;983;1871;-63
2021/08/19 01:13:02;;;;;;;;;;;;;;;15.34;77.85;96959.50;30001;983;1884;-65
2021/08/19 01:13:33;;;;;;;;;;;;;;;15.32;78.01;96959.81;30001;983;1880;-63
2021/08/19 01:14:05;;;;;;;;;;;;;;;15.31;78.42;96963.66;30001;983;1871;-64
2021/08/19 01:14:36;;;;;;;;;;;;;;;15.30;78.86;96961.25;30001;982;1871;-65
2021/08/19 01:15:08;;;;;;;;;;;;;;;15.30;78.43;96966.72;30001;982;1871;-68
2021/08/19 01:15:39;;;;;;;;;;;;;;;15.32;78.38;96965.28;30001;982;1871;-65
2021/08/19 01:16:10;;;;;;;;;;;;;;;15.33;77.90;96961.41;30001;982;1871;-63
2021/08/19 01:16:44;;;;;;;;;;;;;;;15.33;78.24;96955.94;30001;982;1871;-64
2021/08/19 01:17:17;;;;;;;;;;;;;;;15.32;77.89;96957.06;30001;983;1883;-63
2021/08/19 01:18:06;;;;;;;;;;;;;;;15.32;78.00;96956.28;30001;983;1879;-64
2021/08/19 01:18:41;;;;;;;;;;;;;;;15.30;78.66;96967.53;30001;983;1884;-65
2021/08/19 01:19:14;;;;;;;;;;;;;;;15.29;78.50;96965.91;30001;983;1879;-64
2021/08/19 01:19:46;;;;;;;;;;;;;;;15.27;78.65;96962.69;30001;983;1884;-64
2021/08/19 01:20:17;;;;;;;;;;;;;;;15.27;78.81;96962.69;30001;983;1880;-63
2021/08/19 01:20:48;;;;;;;;;;;;;;;15.26;78.69;96954.81;30001;983;1884;-65
2021/08/19 01:21:18;;;;;;;;;;;;;;;15.25;78.73;96959.47;30001;983;1867;-64
2021/08/19 01:21:54;;;;;;;;;;;;;;;15.25;78.45;96959.47;30001;982;1875;-64
2021/08/19 01:22:25;;;;;;;;;;;;;;;15.24;78.69;96968.84;30001;982;1880;-58
2021/08/19 01:22:57;;;;;;;;;;;;;;;15.24;78.62;96960.63;30001;982;1884;-64
2021/08/19 01:23:28;;;;;;;;;;;;;;;15.23;78.58;96961.75;30001;982;1880;-65
2021/08/19 01:23:59;;;;;;;;;;;;;;;15.22;78.90;96962.88;30001;982;1884;-63
2021/08/19 01:24:30;;;;;;;;;;;;;;;15.23;78.93;96960.94;30001;983;1879;-64
2021/08/19 01:25:01;;;;;;;;;;;;;;;15.22;78.79;96956.59;30001;983;1883;-64
2021/08/19 01:25:32;;;;;;;;;;;;;;;15.23;78.77;96964.50;30001;983;1866;-65
2021/08/19 01:26:06;;;;;;;;;;;;;;;15.23;78.87;96959.03;30001;983;1875;-55
2021/08/19 01:26:38;;;;;;;;;;;;;;;15.26;78.56;96961.09;30001;983;1879;-65
2021/08/19 01:27:13;;;;;;;;;;;;;;;15.27;78.48;96957.22;30001;983;1884;-64
2021/08/19 01:27:44;;;;;;;;;;;;;;;15.26;78.70;96961.09;30001;983;1866;-65
2021/08/19 01:28:15;;;;;;;;;;;;;;;15.27;78.51;96959.97;30001;983;1875;-63
2021/08/19 01:28:46;;;;;;;;;;;;;;;15.28;78.52;96956.09;30001;982;1880;-63
2021/08/19 01:29:17;;;;;;;;;;;;;;;15.30;77.96;96953.06;30001;982;1884;-62
2021/08/19 01:29:49;;;;;;;;;;;;;;;15.32;78.01;96959.00;30001;982;1880;-66
2021/08/19 01:30:20;;;;;;;;;;;;;;;15.34;78.11;96957.56;30001;982;1884;-65
2021/08/19 01:30:53;;;;;;;;;;;;;;;15.34;77.62;96956.75;30001;986;1867;-62
2021/08/19 01:31:24;;;;;;;;;;;;;;;15.36;77.74;96955.31;30001;982;1876;-63
2021/08/19 01:32:00;;;;;;;;;;;;;;;15.34;77.68;96952.09;30001;983;1879;-56
2021/08/19 01:32:33;;;;;;;;;;;;;;;15.33;77.83;96955.94;30001;983;1884;-65
2021/08/19 01:33:04;;;;;;;;;;;;;;;15.32;77.88;96957.06;30001;983;1879;-70
2021/08/19 01:33:40;;;;;;;;;;;;;;;15.32;77.69;96951.59;30001;983;1871;-65
2021/08/19 01:34:11;;;;;;;;;;;;;;;15.31;77.87;96955.47;30001;983;1871;-64
2021/08/19 01:34:42;;;;;;;;;;;;;;;15.31;77.64;96958.19;30001;983;1884;-64
2021/08/19 01:35:18;;;;;;;;;;;;;;;15.31;77.74;96962.84;30001;983;1880;-64
2021/08/19 01:35:49;;;;;;;;;;;;;;;15.32;77.80;96962.53;30001;983;1884;-65
2021/08/19 01:36:20;;;;;;;;;;;;;;;15.32;77.92;96948.88;30001;982;1867;-63
2021/08/19 01:36:51;;;;;;;;;;;;;;;15.32;77.89;96965.28;30001;982;1875;-63
2021/08/19 01:37:22;;;;;;;;;;;;;;;15.31;77.92;96958.19;30001;982;1880;-65
2021/08/19 01:37:53;;;;;;;;;;;;;;;15.37;77.61;96956.91;30001;982;1871;-55
2021/08/19 01:38:34;;;;;;;;;;;;;;;15.38;77.52;96953.06;30001;982;1871;-65
2021/08/19 01:39:05;;;;;;;;;;;;;;;15.37;77.95;96951.44;30001;982;1884;-57
2021/08/19 01:39:36;;;;;;;;;;;;;;;15.34;79.30;96954.81;30001;983;1866;-64
2021/08/19 01:40:08;;;;;;;;;;;;;;;15.32;78.78;96957.06;30001;983;1875;-65
2021/08/19 01:40:42;;;;;;;;;;;;;;;15.30;78.31;96956.59;30001;983;1879;-64
2021/08/19 01:41:13;;;;;;;;;;;;;;;15.28;78.31;96945.16;30001;983;1884;-64
2021/08/19 01:41:44;;;;;;;;;;;;;;;15.28;78.38;96958.84;30001;983;1866;-64
2021/08/19 01:42:16;;;;;;;;;;;;;;;15.27;78.61;96962.69;30001;983;1875;-64
2021/08/19 01:42:46;;;;;;;;;;;;;;;15.27;78.89;96957.22;30001;983;1880;-65
2021/08/19 01:43:18;;;;;;;;;;;;;;;15.26;78.28;96958.34;30001;983;1884;-65
2021/08/19 01:43:52;;;;;;;;;;;;;;;15.28;78.17;96964.31;30001;982;1880;-64
2021/08/19 01:44:24;;;;;;;;;;;;;;;15.29;78.29;96959.66;30001;982;1884;-62
2021/08/19 01:44:55;;;;;;;;;;;;;;;15.30;77.97;96964.78;30001;982;1880;-63
2021/08/19 01:45:29;;;;;;;;;;;;;;;15.31;78.10;96955.47;30001;982;1884;-64
2021/08/19 01:46:03;;;;;;;;;;;;;;;15.33;77.64;96955.16;30001;982;1880;-64
2021/08/19 01:46:34;;;;;;;;;;;;;;;15.35;77.59;96964.62;30001;983;1870;-63
2021/08/19 01:47:07;;;;;;;;;;;;;;;15.36;77.49;96958.03;30001;983;1857;-63
2021/08/19 01:47:39;;;;;;;;;;;;;;;15.40;77.42;96955.47;30001;983;1884;-65
2021/08/19 01:48:10;;;;;;;;;;;;;;;15.38;77.47;96957.72;30001;983;1879;-63
2021/08/19 01:48:49;;;;;;;;;;;;;;;15.39;77.77;96957.41;30001;983;1884;-66
2021/08/19 01:49:21;;;;;;;;;;;;;;;15.38;77.57;96958.53;30001;983;1866;-64
2021/08/19 01:49:52;;;;;;;;;;;;;;;15.37;77.65;96956.91;30001;983;1875;-65
2021/08/19 01:50:23;;;;;;;;;;;;;;;15.38;77.68;96955.78;30001;983;1866;-60
2021/08/19 01:50:54;;;;;;;;;;;;;;;15.39;77.91;96960.13;30001;983;1875;-64
2021/08/19 01:51:25;;;;;;;;;;;;;;;15.36;77.83;96955.31;30001;982;1880;-64
2021/08/19 01:51:57;;;;;;;;;;;;;;;15.35;77.52;96953.69;30001;982;1884;-64
2021/08/19 01:52:28;;;;;;;;;;;;;;;15.32;77.64;96954.34;30001;982;1880;-65
2021/08/19 01:52:59;;;;;;;;;;;;;;;15.32;77.91;96959.81;30001;982;1884;-64
2021/08/19 01:53:30;;;;;;;;;;;;;;;15.31;77.87;96957.41;30001;982;1853;-65
2021/08/19 01:54:02;;;;;;;;;;;;;;;15.29;78.08;96954.97;30001;983;1883;-64
2021/08/19 01:54:33;;;;;;;;;;;;;;;15.29;78.00;96960.44;30001;983;1879;-63
2021/08/19 01:55:04;;;;;;;;;;;;;;;15.28;78.27;96955.28;30001;983;1884;-64
2021/08/19 01:55:36;;;;;;;;;;;;;;;15.27;79.26;96956.41;30001;983;1866;-64
2021/08/19 01:56:07;;;;;;;;;;;;;;;15.26;79.00;96950.16;30001;983;1875;-55
2021/08/19 01:56:38;;;;;;;;;;;;;;;15.26;78.59;96955.62;30001;983;1866;-66
2021/08/19 01:57:09;;;;;;;;;;;;;;;15.28;77.99;96953.38;30001;983;1875;-64
2021/08/19 01:57:40;;;;;;;;;;;;;;;15.28;78.27;96958.03;30001;983;1880;-63
2021/08/19 01:58:11;;;;;;;;;;;;;;;15.28;78.42;96958.84;30001;983;1884;-65
2021/08/19 01:58:42;;;;;;;;;;;;;;;15.27;78.43;96951.75;30001;982;1880;-65
2021/08/19 01:59:12;;;;;;;;;;;;;;;15.28;77.98;96955.28;30001;982;1771;-64
2021/08/19 01:59:44;;;;;;;;;;;;;;;15.29;78.40;96954.19;30001;982;1871;-64
2021/08/19 02:00:15;;;;;;;;;;;;;;;15.28;78.14;96963.50;30001;982;1884;-64
2021/08/19 02:00:47;;;;;;;;;;;;;;;15.26;78.57;96961.09;30001;982;1867;-65
2021/08/19 02:01:19;;;;;;;;;;;;;;;15.25;78.54;96964.12;30001;983;1875;-62
2021/08/19 02:01:50;;;;;;;;;;;;;;;15.25;78.41;96954.00;30001;983;1879;-63
2021/08/19 02:02:22;;;;;;;;;;;;;;;15.26;78.42;96952.09;30001;983;1884;-64
2021/08/19 02:02:53;;;;;;;;;;;;;;;15.25;78.65;96954.00;30001;983;1866;-65
2021/08/19 02:03:23;;;;;;;;;;;;;;;15.24;78.37;96949.69;30001;983;1875;-63
2021/08/19 02:03:55;;;;;;;;;;;;;;;15.26;78.41;96954.81;30001;983;1879;-65
2021/08/19 02:04:26;;;;;;;;;;;;;;;15.26;78.38;96946.63;30001;983;1884;-63
2021/08/19 02:04:56;;;;;;;;;;;;;;;15.26;78.24;96955.62;30001;959;1904;-65
2021/08/19 02:05:27;;;;;;;;;;;;;;;15.24;78.13;96946.97;30001;983;1884;-65
2021/08/19 02:05:58;;;;;;;;;;;;;;;15.24;78.43;96946.16;30001;983;1867;-63
2021/08/19 02:06:29;;;;;;;;;;;;;;;15.24;78.21;96952.44;30001;982;1875;-64
2021/08/19 02:07:00;;;;;;;;;;;;;;;15.25;78.22;96954.00;30001;982;1880;-64
2021/08/19 02:07:31;;;;;;;;;;;;;;;15.24;78.53;96946.97;30001;982;1884;-63
2021/08/19 02:08:01;;;;;;;;;;;;;;;15.26;78.28;96950.16;30001;982;1880;-64
2021/08/19 02:08:32;;;;;;;;;;;;;;;15.25;78.44;96945.81;30001;982;1884;-54
2021/08/19 02:09:04;;;;;;;;;;;;;;;15.26;78.30;96954.81;30001;983;1879;-63
2021/08/19 02:09:35;;;;;;;;;;;;;;;15.26;78.25;96958.34;30001;983;1884;-63
2021/08/19 02:10:07;;;;;;;;;;;;;;;15.26;78.13;96952.09;30001;983;1879;-64
2021/08/19 02:10:38;;;;;;;;;;;;;;;15.27;78.19;96951.75;30001;983;1884;-63
2021/08/19 02:11:09;;;;;;;;;;;;;;;15.28;78.30;96953.38;30001;983;1866;-63
2021/08/19 02:11:40;;;;;;;;;;;;;;;15.31;77.96;96951.94;30001;983;1875;-65
2021/08/19 02:12:11;;;;;;;;;;;;;;;15.31;77.97;96952.72;30001;983;1880;-63
2021/08/19 02:12:42;;;;;;;;;;;;;;;15.28;77.99;96953.38;30001;983;1884;-66
2021/08/19 02:13:13;;;;;;;;;;;;;;;15.27;78.24;96951.75;30001;983;1880;-64
2021/08/19 02:13:44;;;;;;;;;;;;;;;15.26;77.99;96950.16;30001;982;1871;-63
2021/08/19 02:14:16;;;;;;;;;;;;;;;15.24;79.04;96952.44;30001;982;1871;-65
2021/08/19 02:14:46;;;;;;;;;;;;;;;15.24;78.84;96954.38;30001;982;1884;-65
2021/08/19 02:15:17;;;;;;;;;;;;;;;15.25;78.52;96948.53;30001;985;1871;-65
2021/08/19 02:15:48;;;;;;;;;;;;;;;15.26;78.11;96954.81;30001;982;1884;-64
2021/08/19 02:16:19;;;;;;;;;;;;;;;15.31;77.98;96947.25;30001;983;1879;-63
2021/08/19 02:16:50;;;;;;;;;;;;;;;15.32;78.09;96948.88;30001;983;1883;-65
2021/08/19 02:17:21;;;;;;;;;;;;;;;15.32;77.81;96950.81;30001;983;1879;-64
2021/08/19 02:17:52;;;;;;;;;;;;;;;15.36;77.76;96952.56;30001;983;1884;-63
2021/08/19 02:18:22;;;;;;;;;;;;;;;15.38;77.56;96947.59;30001;983;1879;-75
2021/08/19 02:18:53;;;;;;;;;;;;;;;15.41;77.48;96946.13;30001;983;1871;-63
2021/08/19 02:19:24;;;;;;;;;;;;;;;15.40;77.46;96950.00;30001;983;1871;-64
2021/08/19 02:19:55;;;;;;;;;;;;;;;15.37;77.39;96948.72;30001;983;1884;-64
2021/08/19 02:20:26;;;;;;;;;;;;;;;15.35;77.63;96950.97;30001;983;1880;-64
2021/08/19 02:20:57;;;;;;;;;;;;;;;15.33;77.78;96947.75;30001;982;1884;-63
2021/08/19 02:21:28;;;;;;;;;;;;;;;15.31;77.81;96947.25;30001;982;1880;-64
2021/08/19 02:21:59;;;;;;;;;;;;;;;15.28;78.18;96947.91;30001;982;1884;-56
2021/08/19 02:22:30;;;;;;;;;;;;;;;15.27;78.40;96945.50;30001;982;1880;-65
2021/08/19 02:23:02;;;;;;;;;;;;;;;15.25;78.11;96951.28;30001;982;1884;-65
2021/08/19 02:23:33;;;;;;;;;;;;;;;15.24;78.17;96952.44;30001;982;1880;-65
2021/08/19 02:24:04;;;;;;;;;;;;;;;15.24;78.22;96952.44;30001;983;1870;-64
2021/08/19 02:24:35;;;;;;;;;;;;;;;15.24;78.27;96955.16;30001;983;1870;-63
2021/08/19 02:25:06;;;;;;;;;;;;;;;15.24;78.47;96952.44;30001;983;1884;-65
2021/08/19 02:25:37;;;;;;;;;;;;;;;15.23;78.79;96950.81;30001;983;1866;-63
2021/08/19 02:26:08;;;;;;;;;;;;;;;15.23;78.66;96950.03;30001;983;1862;-65
2021/08/19 02:26:39;;;;;;;;;;;;;;;15.22;78.44;96954.69;30001;983;1880;-64
2021/08/19 02:27:09;;;;;;;;;;;;;;;15.22;78.66;96959.34;30001;983;1884;-65
2021/08/19 02:27:41;;;;;;;;;;;;;;;15.22;78.67;96954.69;30001;983;1880;-64
2021/08/19 02:28:12;;;;;;;;;;;;;;;15.27;78.46;96951.75;30001;982;1884;-67
2021/08/19 02:28:43;;;;;;;;;;;;;;;15.29;78.34;96948.72;30001;982;1880;-64
2021/08/19 02:29:14;;;;;;;;;;;;;;;15.26;78.79;96954.81;30001;982;1884;-65
2021/08/19 02:29:45;;;;;;;;;;;;;;;15.21;78.75;96947.59;30001;982;1880;-64
2021/08/19 02:30:15;;;;;;;;;;;;;;;15.21;78.92;96947.59;30001;982;1884;-65
2021/08/19 02:30:46;;;;;;;;;;;;;;;15.18;79.05;96948.25;30001;985;1880;-64
2021/08/19 02:31:17;;;;;;;;;;;;;;;15.18;79.81;96948.25;30001;982;1871;-63
2021/08/19 02:31:49;;;;;;;;;;;;;;;15.16;79.48;96950.50;30001;983;1870;-65
2021/08/19 02:32:20;;;;;;;;;;;;;;;15.15;79.54;96946.16;30001;983;1883;-64
2021/08/19 02:32:57;;;;;;;;;;;;;;;15.16;79.04;96950.50;30001;983;1879;-65
2021/08/19 02:33:28;;;;;;;;;;;;;;;15.21;78.49;96949.53;30001;983;1884;-64
2021/08/19 02:33:59;;;;;;;;;;;;;;;15.24;78.22;96943.44;30001;983;1880;-63
2021/08/19 02:34:30;;;;;;;;;;;;;;;15.25;78.08;96951.28;30001;963;1815;-64
2021/08/19 02:35:01;;;;;;;;;;;;;;;15.25;78.14;96947.75;30001;983;1880;-65
2021/08/19 02:35:32;;;;;;;;;;;;;;;15.25;78.46;96947.75;30001;983;1884;-65
2021/08/19 02:36:04;;;;;;;;;;;;;;;15.24;78.11;96948.91;30001;982;1880;-63
2021/08/19 02:36:34;;;;;;;;;;;;;;;15.25;78.02;96947.75;30001;982;1871;-65
2021/08/19 02:37:05;;;;;;;;;;;;;;;15.24;77.96;96948.91;30001;982;1871;-66
2021/08/19 02:37:37;;;;;;;;;;;;;;;15.28;77.92;96942.44;30001;982;1884;-63
2021/08/19 02:38:08;;;;;;;;;;;;;;;15.29;78.10;96948.72;30001;982;1867;-63
2021/08/19 02:38:38;;;;;;;;;;;;;;;15.29;78.08;96944.03;30001;982;1876;-63
2021/08/19 02:39:09;;;;;;;;;;;;;;;15.31;77.80;96947.25;30001;983;1879;-65
2021/08/19 02:39:40;;;;;;;;;;;;;;;15.30;77.78;96944.84;30001;983;1884;-64
2021/08/19 02:40:12;;;;;;;;;;;;;;;15.29;77.77;96945.97;30001;983;1879;-63
2021/08/19 02:40:42;;;;;;;;;;;;;;;15.29;78.07;96949.50;30001;983;1884;-63
2021/08/19 02:41:13;;;;;;;;;;;;;;;15.28;77.72;96947.91;30001;983;1879;-64
2021/08/19 02:41:44;;;;;;;;;;;;;;;15.28;77.79;96952.56;30001;983;1884;-63
2021/08/19 02:42:15;;;;;;;;;;;;;;;15.27;77.92;96940.81;30001;983;1880;-66
2021/08/19 02:42:46;;;;;;;;;;;;;;;15.33;77.55;96945.00;30001;983;1884;-57
2021/08/19 02:43:17;;;;;;;;;;;;;;;15.33;77.76;96939.53;30001;982;1867;-64
2021/08/19 02:43:47;;;;;;;;;;;;;;;15.32;77.68;96940.66;30001;982;1875;-64
2021/08/19 02:44:18;;;;;;;;;;;;;;;15.31;77.47;96947.25;30001;982;1880;-65
2021/08/19 02:44:49;;;;;;;;;;;;;;;15.32;77.59;96943.41;30001;982;1884;-64
2021/08/19 02:45:20;;;;;;;;;;;;;;;15.31;77.54;96946.47;30001;982;1880;-64
2021/08/19 02:45:51;;;;;;;;;;;;;;;15.30;78.09;96944.84;30001;982;1884;-66
2021/08/19 02:46:22;;;;;;;;;;;;;;;15.28;78.13;96939.69;30001;982;1880;-66
2021/08/19 02:46:53;;;;;;;;;;;;;;;15.28;77.67;96938.91;30001;983;1884;-65
2021/08/19 02:47:23;;;;;;;;;;;;;;;15.29;77.65;96944.03;30001;983;1788;-65
2021/08/19 02:47:54;;;;;;;;;;;;;;;15.28;78.17;96936.97;30001;983;1884;-65
2021/08/19 02:48:25;;;;;;;;;;;;;;;15.25;78.76;96940.34;30001;983;1866;-65